| time (UTC) | temp F | wind direction | speed knots | gust knots | rain 1hr in | rain 24hr in | rain mn in | humidity % | barometer mb |
| 20260506171050 | 72 | 254 | 0.9 | 7.8 | 0.00 | 0.00 | 0.00 | 84 | 1012.4 |
| 20260506170550 | 70 | 40 | 0.9 | 3.5 | 0.00 | 0.00 | 0.00 | 84 | 1012.4 |
| 20260506170105 | 70 | 69 | 0.9 | 3.5 | 0.00 | 0.00 | 0.00 | 84 | 1012.5 |
| 20260506165547 | 70 | 50 | 0.9 | 5.2 | 0.00 | 0.00 | 0.00 | 85 | 1012.5 |
| 20260506165050 | 69 | 0 | 0.9 | 7.8 | 0.00 | 0.00 | 0.00 | 87 | 1012.6 |
| 20260506164553 | 68 | 0 | 0.9 | 7.8 | 0.00 | 0.00 | 0.00 | 87 | 1012.6 |
| 20260506164050 | 68 | 11 | 1.7 | 7.0 | 0.00 | 0.00 | 0.00 | 87 | 1012.8 |
| 20260506163550 | 68 | 64 | 1.7 | 7.8 | 0.00 | 0.00 | 0.00 | 87 | 1012.9 |
| 20260506163059 | 68 | 11 | 1.7 | 7.8 | 0.00 | 0.00 | 0.00 | 85 | 1013.0 |
| 20260506162548 | 68 | 32 | 2.6 | 7.8 | 0.00 | 0.00 | 0.00 | 84 | 1013.0 |
| 20260506162050 | 69 | 35 | 2.6 | 11.3 | 0.00 | 0.00 | 0.00 | 83 | 1013.0 |
| 20260506161553 | 73 | 274 | 4.3 | 11.3 | 0.00 | 0.00 | 0.00 | 77 | 1013.0 |
| 20260506161050 | 76 | 28 | 0.0 | 1.7 | 0.00 | 0.00 | 0.00 | 86 | 1012.8 |
| 20260506160550 | 76 | 0 | 0.0 | 1.7 | 0.00 | 0.00 | 0.00 | 87 | 1012.7 |
| 20260506160052 | 76 | 37 | 0.0 | 2.6 | 0.00 | 0.00 | 0.00 | 86 | 1012.8 |
| 20260506155553 | 76 | 360 | 0.0 | 2.6 | 0.00 | 0.00 | 0.00 | 88 | 1012.7 |
| 20260506155053 | 76 | 0 | 0.0 | 1.7 | 0.00 | 0.00 | 0.00 | 88 | 1012.8 |
| 20260506154608 | 75 | 0 | 0.0 | 1.7 | 0.00 | 0.00 | 0.00 | 88 | 1012.6 |
| 20260506154051 | 75 | 0 | 0.0 | 1.7 | 0.00 | 0.00 | 0.00 | 89 | 1012.5 |
| 20260506153550 | 75 | 53 | 0.0 | 2.6 | 0.00 | 0.00 | 0.00 | 88 | 1012.5 |
| 20260506153054 | 75 | 0 | 0.0 | 2.6 | 0.00 | 0.00 | 0.00 | 88 | 1012.4 |
| 20260506152550 | 75 | 0 | 0.0 | 1.7 | 0.00 | 0.00 | 0.00 | 89 | 1012.1 |
| 20260506152048 | 75 | 0 | 0.0 | 2.6 | 0.00 | 0.00 | 0.00 | 89 | 1012.0 |
| 20260506151555 | 75 | 144 | 0.9 | 2.6 | 0.00 | 0.00 | 0.00 | 89 | 1011.7 |
| 20260506151050 | 75 | 0 | 0.0 | 1.7 | 0.00 | 0.00 | 0.00 | 89 | 1011.6 |
| 20260506150550 | 75 | 0 | 0.9 | 2.6 | 0.00 | 0.00 | 0.00 | 89 | 1011.4 |
| 20260506150051 | 75 | 0 | 0.0 | 2.6 | 0.00 | 0.00 | 0.00 | 90 | 1011.4 |
| 20260506145547 | 74 | 146 | 0.0 | 2.6 | 0.00 | 0.00 | 0.00 | 90 | 1011.4 |
| 20260506145047 | 74 | 0 | 0.0 | 2.6 | 0.00 | 0.00 | 0.00 | 90 | 1011.4 |
| 20260506144556 | 74 | 0 | 0.0 | 2.6 | 0.00 | 0.00 | 0.00 | 90 | 1011.4 |
| 20260506144050 | 74 | 0 | 0.0 | 3.5 | 0.00 | 0.00 | 0.00 | 90 | 1011.5 |
| 20260506143546 | 74 | 60 | 0.9 | 3.5 | 0.00 | 0.00 | 0.00 | 91 | 1011.2 |
| 20260506143051 | 74 | 140 | 0.0 | 2.6 | 0.00 | 0.00 | 0.00 | 91 | 1011.2 |
| 20260506142546 | 74 | 0 | 0.0 | 1.7 | 0.00 | 0.00 | 0.00 | 91 | 1011.1 |
| 20260506142045 | 74 | 0 | 0.0 | 0.9 | 0.00 | 0.00 | 0.00 | 91 | 1011.3 |
| 20260506141555 | 74 | 0 | 0.0 | 0.0 | 0.00 | 0.00 | 0.00 | 91 | 1011.4 |
| 20260506141051 | 74 | 0 | 0.0 | 0.9 | 0.00 | 0.00 | 0.00 | 91 | 1011.3 |
| 20260506140547 | 74 | 0 | 0.0 | 0.9 | 0.00 | 0.00 | 0.00 | 91 | 1011.3 |
| 20260506140053 | 74 | 24 | 0.0 | 2.6 | 0.00 | 0.00 | 0.00 | 91 | 1011.3 |
| 20260506135546 | 74 | 0 | 0.0 | 5.2 | 0.00 | 0.00 | 0.00 | 91 | 1011.0 |
| 20260506135046 | 74 | 63 | 0.0 | 5.2 | 0.00 | 0.00 | 0.00 | 91 | 1010.6 |
| 20260506134547 | 74 | 0 | 0.9 | 5.2 | 0.00 | 0.00 | 0.00 | 92 | 1010.4 |
| 20260506134050 | 74 | 156 | 0.0 | 3.5 | 0.00 | 0.00 | 0.00 | 92 | 1010.3 |
| 20260506133548 | 74 | 0 | 0.0 | 4.3 | 0.00 | 0.00 | 0.00 | 92 | 1010.3 |
| 20260506133109 | 73 | 59 | 1.7 | 4.3 | 0.00 | 0.00 | 0.00 | 92 | 1010.1 |
| 20260506132547 | 73 | 111 | 1.7 | 4.3 | 0.00 | 0.00 | 0.00 | 92 | 1010.2 |
| 20260506132047 | 73 | 116 | 0.9 | 5.2 | 0.00 | 0.00 | 0.00 | 92 | 1010.1 |
| 20260506131553 | 73 | 0 | 0.0 | 5.2 | 0.00 | 0.00 | 0.00 | 92 | 1010.2 |
| 20260506131046 | 73 | 109 | 0.9 | 2.6 | 0.00 | 0.00 | 0.00 | 92 | 1010.2 |
| 20260506130546 | 73 | 15 | 0.0 | 3.5 | 0.00 | 0.00 | 0.00 | 92 | 1010.0 |
| 20260506130119 | 73 | 0 | 0.9 | 3.5 | 0.00 | 0.00 | 0.00 | 92 | 1010.0 |
| 20260506125545 | 73 | 84 | 0.0 | 3.5 | 0.00 | 0.00 | 0.00 | 92 | 1009.9 |
| 20260506125046 | 73 | 0 | 0.0 | 1.7 | 0.00 | 0.00 | 0.00 | 92 | 1010.0 |
| 20260506124550 | 73 | 0 | 0.0 | 1.7 | 0.00 | 0.00 | 0.00 | 92 | 1009.8 |
| 20260506124045 | 73 | 0 | 0.0 | 1.7 | 0.00 | 0.00 | 0.00 | 92 | 1009.8 |
| 20260506123547 | 73 | 142 | 0.0 | 1.7 | 0.00 | 0.00 | 0.00 | 92 | 1009.9 |
| 20260506123053 | 73 | 149 | 0.0 | 1.7 | 0.00 | 0.00 | 0.00 | 92 | 1009.9 |
| 20260506122545 | 73 | 0 | 0.0 | 1.7 | 0.00 | 0.00 | 0.00 | 92 | 1009.9 |
| 20260506122045 | 73 | 0 | 0.0 | 1.7 | 0.00 | 0.00 | 0.00 | 92 | 1009.9 |
| 20260506121554 | 73 | 0 | 0.0 | 0.9 | 0.00 | 0.00 | 0.00 | 92 | 1009.9 |
| 20260506121048 | 73 | 0 | 0.0 | 0.9 | 0.00 | 0.00 | 0.00 | 92 | 1010.0 |
| 20260506120545 | 73 | 0 | 0.0 | 0.9 | 0.00 | 0.00 | 0.00 | 92 | 1009.9 |
| 20260506120052 | 73 | 0 | 0.0 | 0.9 | 0.00 | 0.00 | 0.00 | 91 | 1009.9 |
| 20260506115546 | 73 | 0 | 0.0 | 0.9 | 0.00 | 0.00 | 0.00 | 91 | 1009.9 |
| 20260506115047 | 73 | 0 | 0.0 | 1.7 | 0.00 | 0.00 | 0.00 | 91 | 1009.8 |
| 20260506114627 | 73 | 0 | 0.0 | 1.7 | 0.00 | 0.00 | 0.00 | 91 | 1009.7 |
| 20260506114047 | 73 | 0 | 0.0 | 1.7 | 0.00 | 0.00 | 0.00 | 91 | 1009.6 |
| 20260506113549 | 73 | 0 | 0.0 | 1.7 | 0.00 | 0.00 | 0.00 | 91 | 1009.7 |
| 20260506113053 | 73 | 0 | 0.0 | 1.7 | 0.00 | 0.00 | 0.00 | 91 | 1009.7 |
| 20260506112548 | 73 | 0 | 0.0 | 2.6 | 0.00 | 0.00 | 0.00 | 91 | 1009.7 |
| 20260506112053 | 73 | 0 | 0.0 | 3.5 | 0.00 | 0.00 | 0.00 | 91 | 1009.7 |
| 20260506111552 | 73 | 182 | 0.9 | 3.5 | 0.00 | 0.00 | 0.00 | 91 | 1009.5 |
| 20260506111050 | 73 | 111 | 0.9 | 3.5 | 0.00 | 0.00 | 0.00 | 91 | 1009.6 |
| 20260506110550 | 73 | 165 | 0.9 | 3.5 | 0.00 | 0.00 | 0.00 | 91 | 1009.6 |
| 20260506110058 | 73 | 170 | 0.9 | 3.5 | 0.00 | 0.00 | 0.00 | 91 | 1009.5 |
| 20260506105548 | 73 | 161 | 0.9 | 4.3 | 0.00 | 0.00 | 0.00 | 91 | 1009.5 |
| 20260506105050 | 73 | 188 | 0.9 | 4.3 | 0.00 | 0.00 | 0.00 | 91 | 1009.5 |
| 20260506104618 | 73 | 177 | 0.9 | 4.3 | 0.00 | 0.00 | 0.00 | 91 | 1009.5 |
| 20260506104048 | 73 | 119 | 0.9 | 6.1 | 0.00 | 0.00 | 0.00 | 91 | 1009.5 |
| 20260506103549 | 73 | 179 | 2.6 | 6.1 | 0.00 | 0.00 | 0.00 | 91 | 1009.5 |
| 20260506103052 | 73 | 0 | 0.9 | 3.5 | 0.00 | 0.00 | 0.00 | 91 | 1009.5 |
| 20260506102551 | 73 | 181 | 1.7 | 4.3 | 0.00 | 0.00 | 0.00 | 91 | 1009.5 |
| 20260506102051 | 73 | 111 | 1.7 | 4.3 | 0.00 | 0.00 | 0.00 | 91 | 1009.3 |
| 20260506101551 | 73 | 154 | 1.7 | 6.1 | 0.00 | 0.00 | 0.00 | 91 | 1009.4 |
| 20260506101050 | 73 | 186 | 2.6 | 6.1 | 0.00 | 0.00 | 0.00 | 90 | 1009.3 |
| 20260506100550 | 74 | 147 | 1.7 | 5.2 | 0.00 | 0.00 | 0.00 | 90 | 1009.4 |
| 20260506100053 | 74 | 166 | 1.7 | 4.3 | 0.00 | 0.00 | 0.00 | 90 | 1009.4 |
| 20260506095554 | 74 | 181 | 0.9 | 5.2 | 0.00 | 0.00 | 0.00 | 90 | 1009.3 |
| 20260506095050 | 74 | 101 | 0.9 | 5.2 | 0.00 | 0.00 | 0.00 | 90 | 1009.3 |
| 20260506094554 | 74 | 158 | 2.6 | 6.1 | 0.00 | 0.00 | 0.00 | 90 | 1009.3 |
| 20260506094046 | 74 | 196 | 2.6 | 7.0 | 0.00 | 0.00 | 0.00 | 90 | 1009.2 |
| 20260506093550 | 74 | 172 | 2.6 | 7.0 | 0.00 | 0.00 | 0.00 | 90 | 1009.1 |
| 20260506093049 | 74 | 170 | 2.6 | 7.0 | 0.00 | 0.00 | 0.00 | 90 | 1009.0 |
| 20260506092548 | 74 | 132 | 1.7 | 6.1 | 0.00 | 0.00 | 0.00 | 90 | 1008.9 |
| 20260506092050 | 74 | 165 | 2.6 | 6.1 | 0.00 | 0.00 | 0.00 | 90 | 1009.0 |
| 20260506091556 | 74 | 190 | 2.6 | 8.7 | 0.00 | 0.00 | 0.00 | 90 | 1009.0 |
| 20260506091050 | 74 | 159 | 3.5 | 8.7 | 0.00 | 0.00 | 0.00 | 90 | 1009.0 |
| 20260506090549 | 74 | 174 | 1.7 | 6.1 | 0.00 | 0.00 | 0.00 | 90 | 1009.0 |
| 20260506090052 | 74 | 157 | 2.6 | 6.1 | 0.00 | 0.00 | 0.00 | 90 | 1008.9 |
| 20260506085550 | 74 | 177 | 2.6 | 7.0 | 0.00 | 0.00 | 0.00 | 90 | 1008.9 |
| 20260506085050 | 74 | 162 | 1.7 | 7.0 | 0.00 | 0.00 | 0.00 | 90 | 1009.0 |
| 20260506084550 | 74 | 178 | 1.7 | 7.0 | 0.00 | 0.00 | 0.00 | 90 | 1008.9 |
| 20260506084050 | 74 | 144 | 1.7 | 6.1 | 0.00 | 0.00 | 0.00 | 90 | 1008.8 |
| 20260506083550 | 74 | 178 | 2.6 | 7.8 | 0.00 | 0.00 | 0.00 | 90 | 1009.0 |
| 20260506083055 | 74 | 204 | 3.5 | 7.8 | 0.00 | 0.00 | 0.00 | 90 | 1009.0 |
| 20260506082547 | 74 | 156 | 2.6 | 9.6 | 0.00 | 0.00 | 0.00 | 90 | 1008.9 |
| 20260506082050 | 74 | 207 | 3.5 | 9.6 | 0.00 | 0.00 | 0.00 | 90 | 1009.0 |
| 20260506081600 | 74 | 169 | 3.5 | 7.0 | 0.00 | 0.00 | 0.00 | 90 | 1008.9 |
| 20260506081050 | 74 | 167 | 3.5 | 7.8 | 0.00 | 0.00 | 0.00 | 90 | 1008.9 |
| 20260506080550 | 74 | 188 | 2.6 | 7.8 | 0.00 | 0.00 | 0.00 | 90 | 1009.1 |
| 20260506073053 | 74 | 139 | 3.5 | 7.8 | 0.00 | 0.00 | 0.00 | 90 | 1009.2 |
| 20260506072552 | 74 | 158 | 3.5 | 7.0 | 0.00 | 0.00 | 0.00 | 89 | 1009.3 |
| 20260506072050 | 74 | 149 | 1.7 | 6.1 | 0.00 | 0.00 | 0.00 | 89 | 1009.5 |
| 20260506071610 | 74 | 146 | 1.7 | 7.0 | 0.00 | 0.00 | 0.00 | 89 | 1009.6 |
| 20260506071047 | 74 | 161 | 2.6 | 12.2 | 0.00 | 0.00 | 0.00 | 89 | 1009.5 |
| 20260506070550 | 74 | 184 | 4.3 | 12.2 | 0.00 | 0.00 | 0.00 | 89 | 1009.5 |
| 20260506062050 | 74 | 161 | 3.5 | 12.2 | 0.00 | 0.00 | 0.00 | 89 | 1009.5 |
| 20260506061558 | 74 | 168 | 5.2 | 12.2 | 0.00 | 0.00 | 0.00 | 89 | 1009.6 |
| 20260506061050 | 74 | 166 | 4.3 | 11.3 | 0.00 | 0.00 | 0.00 | 89 | 1009.6 |
| 20260506060553 | 74 | 162 | 3.5 | 8.7 | 0.00 | 0.00 | 0.00 | 89 | 1009.6 |
| 20260506051050 | 75 | 169 | 2.6 | 9.6 | 0.00 | 0.00 | 0.00 | 88 | 1009.8 |
| 20260506050547 | 75 | 144 | 4.3 | 7.8 | 0.00 | 0.00 | 0.00 | 88 | 1009.8 |
| 20260506045052 | 75 | 199 | 3.5 | 8.7 | 0.00 | 0.00 | 0.00 | 88 | 1009.7 |
| 20260506044608 | 75 | 167 | 2.6 | 7.8 | 0.00 | 0.00 | 0.00 | 88 | 1009.7 |
| 20260506044047 | 75 | 153 | 3.5 | 7.8 | 0.00 | 0.00 | 0.00 | 88 | 1009.6 |
| 20260506043551 | 75 | 168 | 2.6 | 7.8 | 0.00 | 0.00 | 0.00 | 88 | 1009.7 |
| 20260506043056 | 75 | 233 | 2.6 | 8.7 | 0.00 | 0.00 | 0.00 | 88 | 1009.6 |
| 20260506042550 | 75 | 132 | 2.6 | 8.7 | 0.00 | 0.00 | 0.00 | 88 | 1009.5 |
| 20260506042049 | 75 | 126 | 3.5 | 9.6 | 0.00 | 0.00 | 0.00 | 88 | 1009.5 |
| 20260506041556 | 75 | 114 | 3.5 | 9.6 | 0.00 | 0.00 | 0.00 | 88 | 1009.5 |
| 20260506041050 | 75 | 142 | 3.5 | 9.6 | 0.00 | 0.00 | 0.00 | 88 | 1009.4 |
| 20260506040548 | 75 | 169 | 2.6 | 9.6 | 0.00 | 0.00 | 0.00 | 88 | 1009.3 |
| 20260506040054 | 76 | 186 | 3.5 | 7.8 | 0.00 | 0.00 | 0.00 | 88 | 1009.3 |
| 20260506035549 | 76 | 163 | 2.6 | 7.8 | 0.00 | 0.00 | 0.00 | 88 | 1009.3 |
| 20260506035048 | 76 | 169 | 3.5 | 7.8 | 0.00 | 0.00 | 0.00 | 88 | 1009.1 |
| 20260506034600 | 76 | 150 | 1.7 | 7.0 | 0.00 | 0.00 | 0.00 | 88 | 1009.1 |
| 20260506034046 | 75 | 148 | 2.6 | 7.0 | 0.00 | 0.00 | 0.00 | 88 | 1009.0 |
| 20260506033546 | 75 | 169 | 1.7 | 5.2 | 0.00 | 0.00 | 0.00 | 89 | 1008.9 |
| 20260506033054 | 75 | 163 | 0.9 | 4.3 | 0.00 | 0.00 | 0.00 | 88 | 1009.0 |
| 20260506032548 | 75 | 159 | 0.9 | 4.3 | 0.00 | 0.00 | 0.00 | 88 | 1008.9 |
| 20260506032046 | 75 | 157 | 0.9 | 6.1 | 0.00 | 0.00 | 0.00 | 88 | 1008.8 |
| 20260506031555 | 75 | 143 | 1.7 | 6.1 | 0.00 | 0.00 | 0.00 | 88 | 1008.7 |
| 20260506031051 | 75 | 135 | 1.7 | 6.1 | 0.00 | 0.00 | 0.00 | 87 | 1008.6 |
| 20260506030549 | 75 | 139 | 0.9 | 5.2 | 0.00 | 0.00 | 0.00 | 87 | 1008.6 |
| 20260506030051 | 75 | 139 | 1.7 | 5.2 | 0.00 | 0.00 | 0.00 | 87 | 1008.5 |
| 20260506025545 | 75 | 141 | 1.7 | 4.3 | 0.00 | 0.00 | 0.00 | 87 | 1008.4 |
| 20260506025048 | 75 | 65 | 0.9 | 4.3 | 0.00 | 0.00 | 0.00 | 86 | 1008.5 |
| 20260506024554 | 76 | 145 | 1.7 | 4.3 | 0.00 | 0.00 | 0.00 | 86 | 1008.4 |
| 20260506024045 | 76 | 126 | 0.0 | 4.3 | 0.00 | 0.00 | 0.00 | 86 | 1008.3 |
| 20260506023547 | 76 | 0 | 0.9 | 5.2 | 0.00 | 0.00 | 0.00 | 85 | 1008.2 |
| 20260506023055 | 76 | 145 | 0.9 | 5.2 | 0.00 | 0.00 | 0.00 | 85 | 1008.2 |
| 20260506022545 | 76 | 173 | 0.9 | 5.2 | 0.00 | 0.00 | 0.00 | 85 | 1008.1 |
| 20260506022045 | 76 | 88 | 0.0 | 5.2 | 0.00 | 0.00 | 0.00 | 85 | 1007.9 |
| 20260506021558 | 76 | 129 | 1.7 | 5.2 | 0.00 | 0.00 | 0.00 | 85 | 1007.8 |
| 20260506021048 | 76 | 149 | 1.7 | 4.3 | 0.00 | 0.00 | 0.00 | 85 | 1007.6 |
| 20260506020547 | 76 | 132 | 0.9 | 3.5 | 0.00 | 0.00 | 0.00 | 84 | 1007.5 |
| 20260506020052 | 76 | 135 | 0.9 | 3.5 | 0.00 | 0.00 | 0.00 | 84 | 1007.6 |
| 20260506015547 | 77 | 120 | 0.9 | 3.5 | 0.00 | 0.00 | 0.00 | 84 | 1007.5 |
| 20260506015046 | 77 | 137 | 0.0 | 3.5 | 0.00 | 0.00 | 0.00 | 83 | 1007.4 |
| 20260506014554 | 77 | 131 | 0.9 | 3.5 | 0.00 | 0.00 | 0.00 | 83 | 1007.4 |
| 20260506014049 | 77 | 152 | 0.9 | 3.5 | 0.00 | 0.00 | 0.00 | 82 | 1007.4 |
| 20260506013548 | 77 | 0 | 0.0 | 3.5 | 0.00 | 0.00 | 0.00 | 82 | 1007.2 |
| 20260506013050 | 77 | 0 | 0.0 | 1.7 | 0.00 | 0.00 | 0.00 | 82 | 1007.2 |
| 20260506012547 | 77 | 0 | 0.0 | 1.7 | 0.00 | 0.00 | 0.00 | 81 | 1007.2 |
| 20260506012048 | 78 | 0 | 0.0 | 4.3 | 0.00 | 0.00 | 0.00 | 81 | 1007.3 |
| 20260506011554 | 78 | 114 | 0.9 | 4.3 | 0.00 | 0.00 | 0.00 | 80 | 1007.2 |
| 20260506011048 | 78 | 150 | 0.9 | 2.6 | 0.00 | 0.00 | 0.00 | 80 | 1007.1 |
| 20260506010550 | 78 | 0 | 0.0 | 1.7 | 0.00 | 0.00 | 0.00 | 79 | 1007.3 |
| 20260506010057 | 79 | 0 | 0.0 | 0.9 | 0.00 | 0.00 | 0.00 | 77 | 1007.3 |
| 20260506005547 | 80 | 0 | 0.0 | 2.6 | 0.00 | 0.00 | 0.00 | 77 | 1007.2 |
| 20260506005047 | 80 | 0 | 0.0 | 2.6 | 0.00 | 0.00 | 0.00 | 76 | 1007.2 |
| 20260506004552 | 80 | 151 | 0.0 | 5.2 | 0.00 | 0.00 | 0.00 | 76 | 1007.2 |
| 20260506004047 | 80 | 173 | 1.7 | 6.1 | 0.00 | 0.00 | 0.00 | 75 | 1007.2 |
| 20260506003552 | 81 | 157 | 2.6 | 6.1 | 0.00 | 0.00 | 0.00 | 74 | 1007.0 |
| 20260506003059 | 81 | 159 | 1.7 | 5.2 | 0.00 | 0.00 | 0.00 | 74 | 1007.1 |
| 20260506002550 | 81 | 150 | 0.9 | 4.3 | 0.00 | 0.00 | 0.00 | 74 | 1007.2 |
| 20260506002049 | 81 | 153 | 1.7 | 7.0 | 0.00 | 0.00 | 0.00 | 74 | 1007.1 |
| 20260506001604 | 82 | 128 | 2.6 | 7.0 | 0.00 | 0.00 | 0.00 | 73 | 1007.1 |
| 20260506001051 | 82 | 134 | 0.9 | 6.1 | 0.00 | 0.00 | 0.00 | 73 | 1007.0 |
| 20260506000547 | 82 | 166 | 0.9 | 6.1 | 0.00 | 0.00 | 0.00 | 73 | 1006.9 |
| 20260506000055 | 82 | 182 | 1.7 | 6.1 | 0.00 | 0.00 | 0.00 | 72 | 1006.9 |
| 20260505235547 | 82 | 0 | 1.7 | 4.3 | 0.00 | 0.00 | 0.00 | 72 | 1006.9 |
| 20260505235048 | 82 | 188 | 1.7 | 4.3 | 0.00 | 0.00 | 0.00 | 72 | 1007.0 |
| 20260505234607 | 82 | 159 | 1.7 | 5.2 | 0.00 | 0.00 | 0.00 | 72 | 1007.0 |
| 20260505234047 | 82 | 131 | 2.6 | 5.2 | 0.00 | 0.00 | 0.00 | 71 | 1006.9 |
| 20260505233551 | 82 | 153 | 2.6 | 5.2 | 0.00 | 0.00 | 0.00 | 72 | 1006.9 |
| 20260505233052 | 82 | 157 | 1.7 | 5.2 | 0.00 | 0.00 | 0.00 | 71 | 1006.8 |
| 20260505232550 | 82 | 164 | 1.7 | 7.0 | 0.00 | 0.00 | 0.00 | 72 | 1007.0 |
| 20260505232050 | 82 | 154 | 1.7 | 7.0 | 0.00 | 0.00 | 0.00 | 72 | 1006.8 |
| 20260505231553 | 82 | 172 | 1.7 | 8.7 | 0.00 | 0.00 | 0.00 | 72 | 1006.9 |
| 20260505231051 | 82 | 180 | 2.6 | 8.7 | 0.00 | 0.00 | 0.00 | 72 | 1006.9 |
| 20260505230547 | 83 | 151 | 4.3 | 8.7 | 0.00 | 0.00 | 0.00 | 69 | 1006.9 |
| 20260505230052 | 83 | 235 | 2.6 | 8.7 | 0.00 | 0.00 | 0.00 | 70 | 1006.8 |
| 20260505225553 | 83 | 172 | 3.5 | 8.7 | 0.00 | 0.00 | 0.00 | 70 | 1006.7 |
| 20260505225050 | 83 | 123 | 3.5 | 7.8 | 0.00 | 0.00 | 0.00 | 69 | 1006.7 |
| 20260505224549 | 83 | 162 | 2.6 | 7.8 | 0.00 | 0.00 | 0.00 | 70 | 1006.7 |
| 20260505224048 | 82 | 233 | 2.6 | 7.0 | 0.00 | 0.00 | 0.00 | 70 | 1006.6 |
| 20260505223549 | 82 | 188 | 3.5 | 7.0 | 0.00 | 0.00 | 0.00 | 71 | 1006.6 |
| 20260505223105 | 83 | 163 | 3.5 | 7.0 | 0.00 | 0.00 | 0.00 | 71 | 1006.6 |
| 20260505222549 | 83 | 195 | 2.6 | 7.8 | 0.00 | 0.00 | 0.00 | 70 | 1006.7 |
| 20260505222049 | 82 | 148 | 3.5 | 7.8 | 0.00 | 0.00 | 0.00 | 70 | 1006.8 |
| 20260505221553 | 82 | 187 | 3.5 | 8.7 | 0.00 | 0.00 | 0.00 | 70 | 1006.7 |
| 20260505221050 | 83 | 200 | 5.2 | 12.2 | 0.00 | 0.00 | 0.00 | 70 | 1006.7 |
| 20260505220550 | 83 | 168 | 3.5 | 12.2 | 0.00 | 0.00 | 0.00 | 70 | 1006.6 |
| 20260505220051 | 83 | 175 | 3.5 | 8.7 | 0.00 | 0.00 | 0.00 | 70 | 1006.8 |
| 20260505215553 | 83 | 201 | 4.3 | 8.7 | 0.00 | 0.00 | 0.00 | 70 | 1006.8 |
| 20260505215050 | 83 | 140 | 3.5 | 8.7 | 0.00 | 0.00 | 0.00 | 70 | 1006.7 |
| 20260505214559 | 82 | 174 | 3.5 | 9.6 | 0.00 | 0.00 | 0.00 | 70 | 1006.8 |
| 20260505214051 | 83 | 159 | 4.3 | 9.6 | 0.00 | 0.00 | 0.00 | 70 | 1006.9 |
| 20260505213550 | 83 | 150 | 4.3 | 9.6 | 0.00 | 0.00 | 0.00 | 70 | 1007.0 |
| 20260505213054 | 84 | 128 | 3.5 | 9.6 | 0.00 | 0.00 | 0.00 | 68 | 1007.2 |
| 20260505212549 | 83 | 131 | 4.3 | 9.6 | 0.00 | 0.00 | 0.00 | 70 | 1007.2 |
| 20260505212050 | 84 | 153 | 5.2 | 9.6 | 0.00 | 0.00 | 0.00 | 69 | 1007.3 |
| 20260505211610 | 84 | 178 | 3.5 | 8.7 | 0.00 | 0.00 | 0.00 | 68 | 1007.4 |
| 20260505211049 | 84 | 198 | 3.5 | 9.6 | 0.00 | 0.00 | 0.00 | 69 | 1007.5 |
| 20260505210551 | 84 | 150 | 3.5 | 9.6 | 0.00 | 0.00 | 0.00 | 69 | 1007.4 |
| 20260505210056 | 83 | 173 | 3.5 | 7.8 | 0.00 | 0.00 | 0.00 | 68 | 1007.6 |
| 20260505205550 | 84 | 185 | 3.5 | 7.8 | 0.00 | 0.00 | 0.00 | 69 | 1007.6 |
| 20260505205051 | 83 | 184 | 4.3 | 8.7 | 0.00 | 0.00 | 0.00 | 69 | 1007.7 |
| 20260505204555 | 83 | 123 | 3.5 | 8.7 | 0.00 | 0.00 | 0.00 | 69 | 1007.8 |
| 20260505204052 | 84 | 177 | 3.5 | 11.3 | 0.00 | 0.00 | 0.00 | 68 | 1007.9 |
| 20260505203551 | 84 | 111 | 3.5 | 11.3 | 0.00 | 0.00 | 0.00 | 70 | 1007.9 |
| 20260505203113 | 84 | 150 | 3.5 | 9.6 | 0.00 | 0.00 | 0.00 | 70 | 1008.0 |
| 20260505202549 | 83 | 209 | 3.5 | 9.6 | 0.00 | 0.00 | 0.00 | 67 | 1008.1 |
| 20260505202050 | 84 | 182 | 4.3 | 9.6 | 0.00 | 0.00 | 0.00 | 68 | 1008.2 |
| 20260505201555 | 83 | 233 | 3.5 | 7.8 | 0.00 | 0.00 | 0.00 | 71 | 1008.2 |
| 20260505201047 | 83 | 145 | 3.5 | 10.4 | 0.00 | 0.00 | 0.00 | 71 | 1008.4 |
| 20260505200548 | 82 | 190 | 3.5 | 10.4 | 0.00 | 0.00 | 0.00 | 71 | 1008.3 |
| 20260505200055 | 83 | 238 | 4.3 | 7.8 | 0.00 | 0.00 | 0.00 | 70 | 1008.4 |
| 20260505195547 | 82 | 169 | 3.5 | 9.6 | 0.00 | 0.00 | 0.00 | 71 | 1008.4 |
| 20260505195046 | 81 | 267 | 4.3 | 9.6 | 0.00 | 0.00 | 0.00 | 72 | 1008.4 |
| 20260505194555 | 82 | 183 | 4.3 | 8.7 | 0.00 | 0.00 | 0.00 | 71 | 1008.5 |
| 20260505194050 | 81 | 123 | 3.5 | 8.7 | 0.00 | 0.00 | 0.00 | 72 | 1008.6 |
| 20260505193551 | 81 | 160 | 3.5 | 8.7 | 0.00 | 0.00 | 0.00 | 72 | 1008.6 |
| 20260505193050 | 80 | 227 | 3.5 | 8.7 | 0.00 | 0.00 | 0.00 | 72 | 1008.8 |
| 20260505192554 | 81 | 190 | 4.3 | 8.7 | 0.00 | 0.00 | 0.00 | 73 | 1008.8 |
| 20260505192050 | 81 | 177 | 4.3 | 8.7 | 0.00 | 0.00 | 0.00 | 74 | 1008.9 |
| 20260505191556 | 81 | 137 | 3.5 | 9.6 | 0.00 | 0.00 | 0.00 | 74 | 1008.8 |
| 20260505191048 | 81 | 196 | 4.3 | 9.6 | 0.00 | 0.00 | 0.00 | 73 | 1009.0 |
| 20260505190546 | 81 | 175 | 4.3 | 8.7 | 0.00 | 0.00 | 0.00 | 73 | 1009.0 |
| 20260505190057 | 80 | 146 | 3.5 | 8.7 | 0.00 | 0.00 | 0.00 | 72 | 1009.0 |
| 20260505185549 | 81 | 148 | 2.6 | 11.3 | 0.00 | 0.00 | 0.00 | 73 | 1009.0 |
| 20260505185048 | 81 | 146 | 3.5 | 11.3 | 0.00 | 0.00 | 0.00 | 73 | 1009.0 |
| 20260505184552 | 81 | 172 | 3.5 | 11.3 | 0.00 | 0.00 | 0.00 | 73 | 1009.0 |
| 20260505184047 | 81 | 125 | 4.3 | 7.8 | 0.00 | 0.00 | 0.00 | 73 | 1009.1 |
| 20260505183550 | 81 | 175 | 3.5 | 7.0 | 0.00 | 0.00 | 0.00 | 74 | 1009.2 |
| 20260505183054 | 80 | 156 | 2.6 | 7.0 | 0.00 | 0.00 | 0.00 | 78 | 1009.2 |
| 20260505182550 | 79 | 169 | 3.5 | 6.1 | 0.00 | 0.00 | 0.00 | 76 | 1009.3 |
| 20260505182048 | 79 | 205 | 3.5 | 6.1 | 0.00 | 0.00 | 0.00 | 75 | 1009.3 |
| 20260505181553 | 78 | 221 | 2.6 | 7.8 | 0.00 | 0.00 | 0.00 | 77 | 1009.4 |
| 20260505181047 | 78 | 184 | 2.6 | 7.8 | 0.00 | 0.00 | 0.00 | 79 | 1009.4 |
| 20260505180550 | 78 | 196 | 3.5 | 7.8 | 0.00 | 0.00 | 0.00 | 79 | 1009.5 |
| 20260505180057 | 78 | 185 | 3.5 | 7.8 | 0.00 | 0.00 | 0.00 | 77 | 1009.7 |
| 20260505175547 | 79 | 138 | 3.5 | 8.7 | 0.00 | 0.00 | 0.00 | 77 | 1009.7 |
| 20260505175050 | 78 | 170 | 3.5 | 9.6 | 0.00 | 0.00 | 0.00 | 81 | 1009.7 |
| 20260505174552 | 77 | 211 | 4.3 | 9.6 | 0.00 | 0.00 | 0.00 | 79 | 1009.8 |
| 20260505174047 | 76 | 217 | 3.5 | 8.7 | 0.00 | 0.00 | 0.00 | 82 | 1009.8 |
| 20260505173547 | 76 | 222 | 4.3 | 7.8 | 0.00 | 0.00 | 0.00 | 82 | 1009.9 |
| 20260505173050 | 76 | 205 | 3.5 | 7.8 | 0.00 | 0.00 | 0.00 | 83 | 1009.9 |
| 20260505172551 | 75 | 159 | 2.6 | 7.8 | 0.00 | 0.00 | 0.00 | 83 | 1010.0 |
| 20260505172048 | 75 | 215 | 3.5 | 7.8 | 0.00 | 0.00 | 0.00 | 85 | 1009.8 |
| 20260505171549 | 74 | 163 | 3.5 | 7.8 | 0.00 | 0.00 | 0.00 | 84 | 1009.8 |